createdAt,value
2022-10-12T00:01:52.059Z,5.48
2022-10-12T00:04:18.933Z,5.11
2022-10-12T00:06:47.171Z,6.99
2022-10-12T00:09:15.596Z,6.25
2022-10-12T00:11:43.558Z,4.39
2022-10-12T00:14:10.278Z,5.72
2022-10-12T00:22:16.274Z,6.37
2022-10-12T00:24:43.181Z,5.96
2022-10-12T00:27:11.876Z,5.85
2022-10-12T00:29:38.614Z,6.00
2022-10-12T00:32:05.699Z,6.37
2022-10-12T00:34:32.552Z,5.69
2022-10-12T00:37:00.316Z,4.62
2022-10-12T00:39:28.533Z,5.31
2022-10-12T00:41:55.731Z,5.83
2022-10-12T00:44:38.304Z,5.56
2022-10-12T00:47:11.912Z,5.53
2022-10-12T00:49:38.961Z,3.98
2022-10-12T00:52:11.415Z,4.79
2022-10-12T00:54:44.814Z,5.31
2022-10-12T00:57:15.140Z,4.65
2022-10-12T00:59:46.346Z,4.66
2022-10-12T01:02:14.043Z,5.65
2022-10-12T01:04:41.434Z,4.63
2022-10-12T01:07:08.427Z,5.16
2022-10-12T01:09:35.486Z,5.60
2022-10-12T01:12:07.159Z,4.89
2022-10-12T01:14:36.263Z,6.22
2022-10-12T01:17:14.023Z,9.30
2022-10-12T01:20:25.558Z,7.90
2022-10-12T01:23:04.463Z,6.86
2022-10-12T01:25:49.447Z,5.23
2022-10-12T01:28:24.381Z,4.77
2022-10-12T01:30:59.282Z,5.28
2022-10-12T01:33:34.708Z,4.47
2022-10-12T01:36:06.878Z,4.95
2022-10-12T01:38:45.702Z,5.05
2022-10-12T01:41:18.486Z,4.30
2022-10-12T01:43:46.388Z,4.55
2022-10-12T01:46:45.265Z,4.86
2022-10-12T01:49:16.991Z,6.42
2022-10-12T01:52:00.902Z,7.12
2022-10-12T01:54:42.203Z,6.74
2022-10-12T01:57:18.571Z,7.51
2022-10-12T01:59:55.353Z,7.29
2022-10-12T02:02:30.776Z,6.33
2022-10-12T02:05:02.562Z,6.78
2022-10-12T02:07:42.883Z,8.24
2022-10-12T02:10:18.213Z,7.10
2022-10-12T02:12:46.549Z,6.83
2022-10-12T02:15:14.819Z,6.53
2022-10-12T02:17:46.069Z,6.94
2022-10-12T02:20:20.076Z,6.14
2022-10-12T02:22:50.808Z,5.68
2022-10-12T02:25:21.545Z,5.17
2022-10-12T02:27:54.046Z,6.01
2022-10-12T02:30:22.047Z,5.71
2022-10-12T02:32:58.010Z,6.65
2022-10-12T02:35:36.991Z,6.23
2022-10-12T02:38:09.045Z,5.73
2022-10-12T02:40:41.908Z,5.10
2022-10-12T02:43:15.633Z,7.79
2022-10-12T02:45:46.342Z,9.50
2022-10-12T02:48:18.645Z,7.79
2022-10-12T02:50:47.637Z,6.20
2022-10-12T02:53:15.644Z,6.64
2022-10-12T02:55:51.621Z,6.19
2022-10-12T02:58:19.423Z,5.58
2022-10-12T03:00:46.767Z,5.68
2022-10-12T03:03:15.115Z,6.14
2022-10-12T03:05:43.361Z,6.60
2022-10-12T03:08:12.285Z,7.51
2022-10-12T03:10:39.173Z,6.63
2022-10-12T03:13:06.462Z,6.29
2022-10-12T03:15:34.442Z,8.05
2022-10-12T03:18:01.388Z,7.17
2022-10-12T03:20:29.717Z,7.78
2022-10-12T03:22:56.935Z,7.24
2022-10-12T03:25:23.814Z,6.41
2022-10-12T03:27:50.837Z,7.48
2022-10-12T03:30:17.863Z,5.85
2022-10-12T03:32:45.029Z,5.98
2022-10-12T03:35:11.877Z,4.96
2022-10-12T03:37:40.518Z,6.13
2022-10-12T03:40:09.321Z,5.69
2022-10-12T03:42:36.535Z,6.73
2022-10-12T03:45:04.726Z,6.16
2022-10-12T03:47:32.515Z,5.52
2022-10-12T03:49:59.637Z,6.85
2022-10-12T03:52:27.445Z,6.84
2022-10-12T03:54:55.800Z,6.77
2022-10-12T03:57:22.650Z,6.82
2022-10-12T03:59:49.665Z,6.56
2022-10-12T04:02:17.269Z,7.83
2022-10-12T04:04:45.381Z,8.15
2022-10-12T04:07:12.188Z,8.10
2022-10-12T04:09:40.094Z,6.91
2022-10-12T04:12:08.405Z,8.81
2022-10-12T04:14:35.425Z,7.39
2022-10-12T04:17:02.227Z,10.58
2022-10-12T04:19:29.105Z,9.49
2022-10-12T04:21:55.919Z,8.61
2022-10-12T04:24:22.912Z,8.78
2022-10-12T04:26:50.303Z,9.90
2022-10-12T04:29:18.643Z,8.56
2022-10-12T04:31:45.876Z,9.74
2022-10-12T04:34:13.038Z,8.60
2022-10-12T04:36:39.951Z,7.02
2022-10-12T04:39:07.166Z,8.67
2022-10-12T04:41:37.114Z,9.54
2022-10-12T04:44:03.909Z,10.99
2022-10-12T04:46:33.499Z,11.21
2022-10-12T04:49:00.344Z,11.68
2022-10-12T04:51:28.630Z,15.22
2022-10-12T04:53:55.716Z,14.03
2022-10-12T04:56:22.773Z,11.09
2022-10-12T04:58:50.512Z,8.84
2022-10-12T05:01:17.473Z,9.24
2022-10-12T05:03:45.627Z,8.02
2022-10-12T05:06:13.707Z,8.12
2022-10-12T05:08:40.491Z,9.06
2022-10-12T05:11:07.389Z,9.94
2022-10-12T05:13:34.114Z,9.48
2022-10-12T05:16:01.152Z,9.76
2022-10-12T05:18:28.139Z,9.28
2022-10-12T05:20:57.277Z,9.55
2022-10-12T05:23:24.220Z,12.54
2022-10-12T05:25:51.311Z,11.25
2022-10-12T05:28:18.070Z,11.57
2022-10-12T05:30:46.116Z,10.45
2022-10-12T05:33:13.121Z,9.96
2022-10-12T05:35:43.960Z,9.65
2022-10-12T05:38:17.589Z,8.88
2022-10-12T05:40:44.631Z,8.15
2022-10-12T05:43:12.566Z,8.72
2022-10-12T05:45:39.360Z,8.79
2022-10-12T05:48:06.485Z,9.00
2022-10-12T05:50:34.766Z,8.02
2022-10-12T05:53:02.642Z,8.84
2022-10-12T05:55:30.755Z,9.08
2022-10-12T05:57:58.577Z,8.69
2022-10-12T06:00:27.796Z,8.13
2022-10-12T06:02:54.975Z,7.60
2022-10-12T06:05:21.765Z,8.04
2022-10-12T06:07:48.611Z,7.23
2022-10-12T06:10:15.656Z,9.11
2022-10-12T06:12:43.995Z,7.87
2022-10-12T06:15:11.272Z,7.83
2022-10-12T06:17:38.433Z,9.01
2022-10-12T06:20:06.051Z,11.35
2022-10-12T06:22:32.843Z,10.96
2022-10-12T06:25:01.071Z,10.25
2022-10-12T06:27:28.125Z,10.23
2022-10-12T06:29:57.109Z,9.49
2022-10-12T06:32:24.154Z,9.94
2022-10-12T06:34:51.017Z,9.90
2022-10-12T06:37:44.523Z,10.47
2022-10-12T06:40:11.658Z,9.96
2022-10-12T06:42:38.753Z,12.00
2022-10-12T06:45:08.588Z,12.25
2022-10-12T06:47:35.327Z,11.51
2022-10-12T06:50:03.812Z,12.20
2022-10-12T06:52:30.828Z,14.03
2022-10-12T06:54:57.699Z,12.02
2022-10-12T06:57:24.492Z,11.40
2022-10-12T06:59:51.515Z,12.04
2022-10-12T07:02:20.209Z,11.15
2022-10-12T07:04:53.687Z,10.72
2022-10-12T07:07:20.676Z,9.64
2022-10-12T07:09:48.010Z,10.00
2022-10-12T07:12:15.057Z,9.31
2022-10-12T07:14:42.282Z,9.01
2022-10-12T07:17:09.696Z,9.62
2022-10-12T07:19:38.001Z,10.62
2022-10-12T07:22:05.108Z,11.93
2022-10-12T07:24:32.237Z,11.85
2022-10-12T07:26:59.046Z,12.81
2022-10-12T07:29:26.108Z,13.27
2022-10-12T07:31:52.978Z,15.59
2022-10-12T07:34:20.116Z,13.32
2022-10-12T07:36:59.185Z,10.87
2022-10-12T07:39:27.080Z,11.50
2022-10-12T07:41:54.532Z,11.71
2022-10-12T07:44:21.824Z,11.49
2022-10-12T07:46:49.245Z,11.63
2022-10-12T07:49:16.427Z,11.02
2022-10-12T07:51:45.174Z,11.02
2022-10-12T07:54:19.006Z,10.09
2022-10-12T07:56:47.458Z,8.87
2022-10-12T07:59:14.506Z,10.47
2022-10-12T08:01:41.743Z,10.86
2022-10-12T08:04:10.458Z,10.52
2022-10-12T08:06:37.491Z,10.88
2022-10-12T08:09:05.187Z,10.93
2022-10-12T08:11:38.551Z,9.83
2022-10-12T08:14:05.952Z,8.88
2022-10-12T08:16:32.855Z,8.83
2022-10-12T08:19:00.514Z,8.52
2022-10-12T08:21:27.857Z,8.68
2022-10-12T08:23:54.683Z,8.06
2022-10-12T08:26:21.950Z,8.14
2022-10-12T08:28:50.667Z,10.25
2022-10-12T08:31:17.770Z,10.03
2022-10-12T08:33:44.912Z,9.92
2022-10-12T08:36:12.878Z,9.01
2022-10-12T08:38:39.885Z,9.46
2022-10-12T08:41:19.608Z,9.39
2022-10-12T08:44:03.198Z,8.46
2022-10-12T08:46:32.013Z,8.41
2022-10-12T08:49:02.927Z,8.42
2022-10-12T08:51:33.364Z,8.20
2022-10-12T08:54:03.668Z,7.26
2022-10-12T08:56:31.680Z,7.46
2022-10-12T08:59:02.145Z,7.69
2022-10-12T09:01:32.392Z,8.11
2022-10-12T09:04:10.670Z,8.25
2022-10-12T09:06:42.111Z,8.85
2022-10-12T09:09:25.190Z,9.39
2022-10-12T09:12:09.628Z,8.43
2022-10-12T09:14:42.020Z,8.51
2022-10-12T09:17:24.433Z,10.49
2022-10-12T09:20:00.664Z,9.60
2022-10-12T09:22:28.965Z,9.33
2022-10-12T09:24:57.718Z,8.45
2022-10-12T09:27:33.952Z,9.18
2022-10-12T09:30:04.503Z,9.19
2022-10-12T09:33:07.391Z,11.26
2022-10-12T09:35:34.394Z,9.39
2022-10-12T09:38:05.682Z,8.57
2022-10-12T09:40:32.894Z,7.53
2022-10-12T09:43:02.781Z,7.69
2022-10-12T09:45:34.272Z,9.02
2022-10-12T09:48:13.049Z,7.59
2022-10-12T09:50:43.443Z,7.84
2022-10-12T09:53:15.229Z,7.19
2022-10-12T09:55:53.131Z,6.67
2022-10-12T09:58:21.463Z,7.30
2022-10-12T10:01:24.937Z,8.50
2022-10-12T10:04:08.166Z,8.15
2022-10-12T10:06:35.755Z,7.81
2022-10-12T10:09:02.915Z,8.00
2022-10-12T10:11:30.822Z,8.32
2022-10-12T10:13:59.306Z,9.17
2022-10-12T10:16:31.437Z,10.23
2022-10-12T10:19:00.762Z,9.17
2022-10-12T10:21:31.589Z,10.41
2022-10-12T10:24:01.368Z,8.56
2022-10-12T10:26:49.959Z,9.19
2022-10-12T10:29:26.859Z,8.56
2022-10-12T10:32:07.084Z,10.09
2022-10-12T10:34:34.142Z,8.41
2022-10-12T10:37:01.101Z,7.90
2022-10-12T10:39:30.127Z,9.31
2022-10-12T10:42:09.873Z,7.97
2022-10-12T10:44:37.390Z,7.80
2022-10-12T10:47:11.630Z,8.26
2022-10-12T10:49:47.008Z,8.84
2022-10-12T10:52:23.861Z,7.79
2022-10-12T10:57:34.415Z,7.70
2022-10-12T11:00:33.499Z,7.64
2022-10-12T11:02:54.826Z,7.65
2022-10-12T11:05:27.271Z,7.64
2022-10-12T11:07:55.916Z,8.48
2022-10-12T11:10:27.380Z,7.38
2022-10-12T11:12:59.908Z,6.40
2022-10-12T11:15:32.851Z,7.04
2022-10-12T11:18:07.207Z,8.63
2022-10-12T11:20:50.437Z,6.76
2022-10-12T11:23:28.481Z,6.65
2022-10-12T11:26:13.973Z,6.89
2022-10-12T11:28:41.923Z,7.55
2022-10-12T11:31:17.720Z,8.01
2022-10-12T11:33:47.243Z,7.00
2022-10-12T11:36:18.047Z,7.50
2022-10-12T11:38:48.320Z,6.59
2022-10-12T11:41:35.100Z,5.82
2022-10-12T11:44:07.702Z,7.87
2022-10-12T11:46:38.654Z,7.08
2022-10-12T11:49:14.233Z,6.88
2022-10-12T11:51:45.709Z,7.37
2022-10-12T11:54:24.032Z,9.22
2022-10-12T11:56:52.818Z,6.80
2022-10-12T11:59:27.250Z,6.06
2022-10-12T12:02:05.320Z,7.07
2022-10-12T12:04:42.994Z,7.22
2022-10-12T12:07:41.057Z,6.68
2022-10-12T12:11:00.196Z,6.72
2022-10-12T12:13:27.186Z,5.75
2022-10-12T12:16:30.139Z,5.81
2022-10-12T12:19:35.507Z,5.89
2022-10-12T12:22:29.424Z,6.42
2022-10-12T12:25:14.195Z,7.73
2022-10-12T12:27:43.492Z,8.63
2022-10-12T12:30:30.721Z,8.09
2022-10-12T12:33:00.319Z,7.92
2022-10-12T12:35:33.095Z,6.50
2022-10-12T12:38:07.646Z,6.90
2022-10-12T12:40:35.563Z,8.00
2022-10-12T12:43:36.638Z,7.99
2022-10-12T12:46:05.395Z,9.25
2022-10-12T12:48:58.642Z,8.48
2022-10-12T12:51:36.365Z,7.60
2022-10-12T12:54:11.351Z,8.79
2022-10-12T12:56:47.833Z,8.42
2022-10-12T12:59:54.014Z,8.96
2022-10-12T13:02:49.187Z,8.08
2022-10-12T13:05:48.728Z,7.28
2022-10-12T13:08:27.756Z,6.62
2022-10-12T13:11:25.155Z,4.80
2022-10-12T13:14:01.886Z,5.48
2022-10-12T13:19:42.075Z,4.21
2022-10-12T13:22:15.505Z,4.32
2022-10-12T13:24:46.001Z,5.56
2022-10-12T13:27:19.844Z,5.05
2022-10-12T13:29:52.971Z,5.37
2022-10-12T13:32:29.868Z,4.40
2022-10-12T13:35:06.017Z,5.18
2022-10-12T13:37:34.160Z,5.11
2022-10-12T13:40:01.765Z,4.12
2022-10-12T13:42:32.328Z,3.36
2022-10-12T13:44:59.648Z,3.65
2022-10-12T13:47:29.450Z,4.09
2022-10-12T13:49:56.890Z,3.08
2022-10-12T13:52:31.675Z,2.82
2022-10-12T13:55:00.414Z,3.54
2022-10-12T13:57:35.494Z,4.05
2022-10-12T14:00:09.825Z,3.42
2022-10-12T14:05:06.091Z,4.30
2022-10-12T14:07:35.116Z,4.43
2022-10-12T14:10:07.678Z,3.46
2022-10-12T14:12:36.999Z,3.75
2022-10-12T14:15:06.895Z,3.96
2022-10-12T14:17:34.028Z,4.00
2022-10-12T14:20:16.954Z,4.20
2022-10-12T14:22:47.936Z,5.92
2022-10-12T14:25:18.305Z,5.91
2022-10-12T14:27:46.579Z,4.68
2022-10-12T14:30:19.376Z,5.71
2022-10-12T14:32:46.677Z,5.60
2022-10-12T14:35:25.564Z,5.14
2022-10-12T14:37:55.343Z,4.79
2022-10-12T14:40:40.180Z,4.51
2022-10-12T14:43:21.921Z,6.11
2022-10-12T14:45:48.940Z,4.56
2022-10-12T14:48:18.524Z,4.00
2022-10-12T14:50:50.402Z,4.88
2022-10-12T14:53:17.615Z,4.75
2022-10-12T14:55:45.036Z,4.03
2022-10-12T14:58:16.057Z,3.97
2022-10-12T15:00:43.602Z,4.15
2022-10-12T15:03:10.665Z,5.08
2022-10-12T15:05:37.614Z,4.96
2022-10-12T15:08:04.877Z,5.40
2022-10-12T15:10:31.664Z,5.50
2022-10-12T15:13:00.619Z,5.39
2022-10-12T15:15:38.949Z,5.02
2022-10-12T15:18:07.071Z,4.65
2022-10-12T15:20:34.720Z,5.47
2022-10-12T15:23:03.088Z,4.63
2022-10-12T15:25:39.914Z,4.70
2022-10-12T15:28:08.884Z,5.65
2022-10-12T15:30:47.463Z,5.89
2022-10-12T15:33:19.251Z,6.62
2022-10-12T15:35:45.999Z,6.57
2022-10-12T15:38:15.099Z,8.57
2022-10-12T15:40:44.405Z,7.19
2022-10-12T15:43:13.211Z,5.66
2022-10-12T15:45:41.512Z,5.96
2022-10-12T15:48:09.810Z,5.88
2022-10-12T15:50:39.165Z,6.55
2022-10-12T15:53:06.773Z,5.53
2022-10-12T15:55:36.647Z,6.21
2022-10-12T15:58:03.498Z,6.07
2022-10-12T16:00:30.394Z,6.90
2022-10-12T16:03:02.343Z,6.47
2022-10-12T16:05:31.003Z,6.73
2022-10-12T16:07:58.698Z,6.99
2022-10-12T16:10:29.829Z,6.11
2022-10-12T16:12:56.864Z,6.78
2022-10-12T16:15:26.808Z,6.43
2022-10-12T16:17:53.721Z,9.21
2022-10-12T16:20:22.187Z,9.00
2022-10-12T16:22:49.878Z,7.93
2022-10-12T16:25:19.162Z,6.64
2022-10-12T16:27:47.234Z,5.42
2022-10-12T16:30:14.637Z,4.44
2022-10-12T16:32:41.741Z,4.94
2022-10-12T16:35:10.075Z,5.13
2022-10-12T16:37:38.676Z,4.71
2022-10-12T16:40:10.159Z,4.41
2022-10-12T16:42:37.578Z,3.58
2022-10-12T16:45:05.681Z,2.60
2022-10-12T16:47:32.634Z,1.71
2022-10-12T16:50:00.108Z,1.41
2022-10-12T16:52:27.046Z,2.03
2022-10-12T16:54:55.648Z,1.45
2022-10-12T16:57:22.973Z,1.82
2022-10-12T16:59:50.890Z,1.81
2022-10-12T17:02:19.463Z,3.42
2022-10-12T17:04:46.754Z,2.41
2022-10-12T17:07:14.328Z,3.08
2022-10-12T17:09:41.290Z,2.19
2022-10-12T17:12:12.460Z,1.66
2022-10-12T17:14:39.496Z,3.40
2022-10-12T17:17:06.509Z,2.36
2022-10-12T17:19:36.398Z,2.23
2022-10-12T17:22:04.346Z,1.74
2022-10-12T17:24:33.490Z,1.90
2022-10-12T17:27:00.995Z,1.66
2022-10-12T17:29:30.485Z,2.05
2022-10-12T17:31:58.211Z,2.59
2022-10-12T17:34:27.149Z,3.22
2022-10-12T17:36:56.377Z,2.70
2022-10-12T17:39:23.990Z,2.28
2022-10-12T17:41:51.375Z,2.95
2022-10-12T17:44:18.649Z,3.47
2022-10-12T17:46:47.208Z,3.34
2022-10-12T17:49:15.882Z,3.40
2022-10-12T17:51:43.341Z,4.10
2022-10-12T17:54:10.364Z,4.43
2022-10-12T17:56:38.433Z,4.06
2022-10-12T17:59:06.004Z,3.05
2022-10-12T18:01:33.562Z,3.25
2022-10-12T18:04:03.708Z,3.94
2022-10-12T18:06:32.612Z,3.58
2022-10-12T18:09:01.493Z,4.16
2022-10-12T18:11:28.862Z,3.97
2022-10-12T18:13:57.180Z,3.87
2022-10-12T18:16:25.815Z,3.02
2022-10-12T18:18:53.524Z,3.97
2022-10-12T18:21:23.317Z,3.35
2022-10-12T18:23:50.549Z,4.12
2022-10-12T18:26:18.249Z,3.57
2022-10-12T18:28:45.725Z,4.24
2022-10-12T18:31:17.357Z,5.07
2022-10-12T18:33:44.596Z,5.39
2022-10-12T18:36:12.175Z,4.59
2022-10-12T18:38:42.503Z,3.90
2022-10-12T18:41:11.747Z,4.72
2022-10-12T18:43:40.502Z,4.48
2022-10-12T18:46:09.409Z,3.90
2022-10-12T18:48:36.728Z,3.81
2022-10-12T18:51:06.912Z,4.67
2022-10-12T18:53:34.239Z,4.36
2022-10-12T18:56:04.127Z,4.04
2022-10-12T18:58:31.462Z,4.37
2022-10-12T19:00:58.556Z,3.97
2022-10-12T19:03:26.380Z,4.25
2022-10-12T19:06:04.318Z,4.00
2022-10-12T19:08:31.134Z,4.68
2022-10-12T19:11:00.239Z,3.88
2022-10-12T19:13:28.503Z,4.65
2022-10-12T19:15:57.895Z,4.10
2022-10-12T19:18:24.606Z,3.19
2022-10-12T19:20:51.483Z,3.22
2022-10-12T19:23:18.627Z,5.39
2022-10-12T19:25:45.350Z,4.79
2022-10-12T19:28:12.659Z,4.91
2022-10-12T19:30:44.563Z,5.17
2022-10-12T19:33:12.957Z,5.40
2022-10-12T19:35:39.770Z,4.15
2022-10-12T19:38:07.923Z,5.22
2022-10-12T19:40:35.515Z,5.29
2022-10-12T19:43:04.192Z,5.73
2022-10-12T19:45:30.898Z,8.96
2022-10-12T19:47:59.941Z,6.44
2022-10-12T19:50:26.807Z,6.44
2022-10-12T19:52:53.811Z,5.06
2022-10-12T19:55:20.910Z,5.63
2022-10-12T19:57:47.810Z,4.74
2022-10-12T20:00:15.452Z,4.25
2022-10-12T20:02:42.542Z,4.33
2022-10-12T20:05:11.422Z,5.51
2022-10-12T20:07:38.922Z,4.66
2022-10-12T20:10:09.435Z,4.96
2022-10-12T20:12:37.472Z,4.91
2022-10-12T20:15:05.134Z,5.79
2022-10-12T20:17:31.984Z,4.63
2022-10-12T20:19:59.021Z,4.08
2022-10-12T20:22:29.639Z,4.72
2022-10-12T20:24:56.693Z,5.03
2022-10-12T20:27:23.634Z,4.29
2022-10-12T20:29:51.816Z,5.65
2022-10-12T20:32:18.786Z,6.17
2022-10-12T20:34:48.418Z,5.75
2022-10-12T20:37:15.528Z,4.60
2022-10-12T20:39:48.625Z,4.60
2022-10-12T20:42:20.572Z,5.30
2022-10-12T20:44:49.045Z,5.35
2022-10-12T20:47:16.035Z,5.01
2022-10-12T20:49:43.275Z,6.13
2022-10-12T20:52:10.794Z,5.35
2022-10-12T20:54:37.776Z,4.75
2022-10-12T20:57:07.344Z,4.30
2022-10-12T20:59:34.998Z,5.28
2022-10-12T21:02:01.947Z,6.01
2022-10-12T21:04:29.105Z,5.98
2022-10-12T21:06:56.425Z,5.13
2022-10-12T21:09:23.192Z,4.65
2022-10-12T21:11:51.244Z,3.46
2022-10-12T21:14:19.814Z,5.06
2022-10-12T21:16:46.791Z,5.93
2022-10-12T21:19:14.999Z,6.03
2022-10-12T21:21:42.115Z,5.16
2022-10-12T21:24:10.258Z,5.92
2022-10-12T21:26:37.317Z,5.22
2022-10-12T21:29:04.596Z,4.55
2022-10-12T21:31:33.993Z,4.60
2022-10-12T21:34:02.038Z,4.42
2022-10-12T21:36:29.949Z,5.76
2022-10-12T21:38:57.754Z,5.76
2022-10-12T21:41:26.677Z,5.08
2022-10-12T21:43:55.132Z,6.96
2022-10-12T21:46:23.872Z,7.75
2022-10-12T21:48:57.172Z,6.48
2022-10-12T21:51:28.134Z,5.24
2022-10-12T21:53:56.287Z,6.19
2022-10-12T21:56:24.617Z,5.86
2022-10-12T21:58:52.654Z,5.00
2022-10-12T22:01:21.592Z,5.60
2022-10-12T22:03:55.065Z,4.91
2022-10-12T22:06:23.412Z,5.59
2022-10-12T22:08:52.912Z,5.20
2022-10-12T22:11:19.970Z,4.87
2022-10-12T22:13:47.112Z,6.82
2022-10-12T22:16:15.835Z,5.48
2022-10-12T22:18:44.483Z,5.75
2022-10-12T22:21:15.299Z,6.72
2022-10-12T22:23:42.815Z,5.08
2022-10-12T22:26:13.799Z,5.65
2022-10-12T22:28:40.784Z,5.94
2022-10-12T22:31:10.466Z,6.15
2022-10-12T22:33:37.810Z,6.18
2022-10-12T22:36:07.168Z,5.36
2022-10-12T22:38:35.773Z,5.91
2022-10-12T22:41:05.199Z,6.22
2022-10-12T22:43:34.088Z,5.53
2022-10-12T22:46:01.561Z,5.79
2022-10-12T22:48:28.583Z,4.80
2022-10-12T22:50:55.548Z,6.13
2022-10-12T22:53:24.640Z,6.17
2022-10-12T22:55:58.432Z,6.82
2022-10-12T22:58:25.472Z,7.53
2022-10-12T23:00:53.463Z,7.48
2022-10-12T23:03:20.459Z,7.08
2022-10-12T23:05:49.185Z,6.02
2022-10-12T23:08:17.187Z,4.85
2022-10-12T23:10:44.200Z,5.43
2022-10-12T23:13:12.424Z,6.76
2022-10-12T23:15:39.226Z,6.86
2022-10-12T23:18:06.262Z,7.63
2022-10-12T23:20:35.121Z,7.88
2022-10-12T23:23:01.963Z,8.71
2022-10-12T23:25:28.759Z,7.87
2022-10-12T23:27:56.087Z,8.06
2022-10-12T23:30:24.264Z,8.64
2022-10-12T23:32:51.207Z,7.08
2022-10-12T23:35:17.983Z,6.65
2022-10-12T23:37:44.882Z,6.92
2022-10-12T23:40:12.483Z,5.93
2022-10-12T23:42:39.489Z,6.03
2022-10-12T23:45:06.992Z,6.54
2022-10-12T23:47:35.208Z,6.18
2022-10-12T23:50:02.163Z,5.63
2022-10-12T23:52:28.921Z,6.01
2022-10-12T23:54:57.159Z,6.68
2022-10-12T23:57:45.797Z,6.42
